createdAt,value
2017-05-19T00:01:38.628Z,15.72
2017-05-19T00:04:08.131Z,15.52
2017-05-19T00:06:37.553Z,15.02
2017-05-19T00:09:07.004Z,17.15
2017-05-19T00:11:37.149Z,16.25
2017-05-19T00:14:06.591Z,15.58
2017-05-19T00:16:36.266Z,13.80
2017-05-19T00:19:05.726Z,14.42
2017-05-19T00:21:35.881Z,13.58
2017-05-19T00:24:05.324Z,14.93
2017-05-19T00:26:34.737Z,14.05
2017-05-19T00:29:04.180Z,12.03
2017-05-19T00:31:33.592Z,11.63
2017-05-19T00:34:03.041Z,11.65
2017-05-19T00:36:32.459Z,11.90
2017-05-19T00:39:01.904Z,12.88
2017-05-19T00:41:31.304Z,10.40
2017-05-19T00:44:00.765Z,11.00
2017-05-19T00:46:30.178Z,10.68
2017-05-19T00:49:00.364Z,11.43
2017-05-19T00:51:29.777Z,11.62
2017-05-19T00:53:59.196Z,9.88
2017-05-19T00:56:28.605Z,8.93
2017-05-19T00:58:58.771Z,9.50
2017-05-19T01:01:28.221Z,9.70
2017-05-19T01:03:57.657Z,10.13
2017-05-19T01:06:27.057Z,9.75
2017-05-19T01:08:56.505Z,9.38
2017-05-19T01:11:25.920Z,10.72
2017-05-19T01:13:55.357Z,9.22
2017-05-19T01:16:24.763Z,8.95
2017-05-19T01:18:54.924Z,7.33
2017-05-19T01:21:23.664Z,8.02
2017-05-19T01:23:53.808Z,6.67
2017-05-19T01:26:23.240Z,6.98
2017-05-19T01:28:52.639Z,6.78
2017-05-19T01:31:22.060Z,7.42
2017-05-19T01:33:51.487Z,7.50
2017-05-19T01:36:21.633Z,7.48
2017-05-19T01:38:51.060Z,6.52
2017-05-19T01:41:20.464Z,7.35
2017-05-19T01:43:49.549Z,6.40
2017-05-19T01:46:18.944Z,5.77
2017-05-19T01:48:48.366Z,6.95
2017-05-19T01:51:17.764Z,6.38
2017-05-19T01:53:47.201Z,6.58
2017-05-19T01:56:16.601Z,6.18
2017-05-19T01:58:46.089Z,5.93
2017-05-19T02:01:15.479Z,6.00
2017-05-19T02:03:44.910Z,6.78
2017-05-19T02:06:14.350Z,6.60
2017-05-19T02:08:43.749Z,6.72
2017-05-19T02:11:13.168Z,5.78
2017-05-19T02:13:42.564Z,6.48
2017-05-19T02:16:12.003Z,6.05
2017-05-19T02:18:41.403Z,7.10
2017-05-19T02:21:10.830Z,6.60
2017-05-19T02:23:40.221Z,7.13
2017-05-19T02:26:09.657Z,6.30
2017-05-19T02:28:39.792Z,6.83
2017-05-19T02:31:09.226Z,8.35
2017-05-19T02:33:38.621Z,7.38
2017-05-19T02:36:08.076Z,7.40
2017-05-19T02:38:37.471Z,6.38
2017-05-19T02:41:06.888Z,7.32
2017-05-19T02:43:36.284Z,6.02
2017-05-19T02:46:05.777Z,6.90
2017-05-19T02:48:35.172Z,6.90
2017-05-19T02:51:04.599Z,6.78
2017-05-19T02:53:33.997Z,8.03
2017-05-19T02:56:04.208Z,7.20
2017-05-19T02:58:34.352Z,7.25
2017-05-19T03:01:03.782Z,7.33
2017-05-19T03:03:33.175Z,6.63
2017-05-19T03:06:02.596Z,7.05
2017-05-19T03:08:31.999Z,7.15
2017-05-19T03:11:01.440Z,7.62
2017-05-19T03:13:30.828Z,7.52
2017-05-19T03:16:00.267Z,6.65
2017-05-19T03:18:30.407Z,7.05
2017-05-19T03:20:59.866Z,6.75
2017-05-19T03:23:29.275Z,5.95
2017-05-19T03:25:59.439Z,7.18
2017-05-19T03:28:28.837Z,7.15
2017-05-19T03:30:58.283Z,7.78
2017-05-19T03:33:27.677Z,6.68
2017-05-19T03:35:57.336Z,6.47
2017-05-19T03:38:26.727Z,7.27
2017-05-19T03:40:57.273Z,6.82
2017-05-19T03:43:26.732Z,6.68
2017-05-19T03:45:56.157Z,6.37
2017-05-19T03:48:26.289Z,6.20
2017-05-19T03:50:55.716Z,7.43
2017-05-19T03:53:25.114Z,6.55
2017-05-19T03:55:54.555Z,6.97
2017-05-19T03:58:23.944Z,6.82
2017-05-19T04:00:53.396Z,8.03
2017-05-19T04:03:22.796Z,7.80
2017-05-19T04:05:52.968Z,6.82
2017-05-19T04:08:22.369Z,7.95
2017-05-19T04:10:51.786Z,6.05
2017-05-19T04:13:21.226Z,7.63
2017-05-19T04:15:50.627Z,6.37
2017-05-19T04:18:20.799Z,5.18
2017-05-19T04:20:50.188Z,6.12
2017-05-19T04:23:19.623Z,6.30
2017-05-19T04:25:49.032Z,6.65
2017-05-19T04:28:18.489Z,7.60
2017-05-19T04:30:47.875Z,6.48
2017-05-19T04:33:17.297Z,7.37
2017-05-19T04:35:46.704Z,7.67
2017-05-19T04:38:16.141Z,6.83
2017-05-19T04:40:45.536Z,6.87
2017-05-19T04:43:14.957Z,6.12
2017-05-19T04:45:45.123Z,6.40
2017-05-19T04:48:14.527Z,6.47
2017-05-19T04:50:43.940Z,8.28
2017-05-19T04:53:13.338Z,6.18
2017-05-19T04:55:42.764Z,7.52
2017-05-19T04:58:12.165Z,6.75
2017-05-19T05:00:41.603Z,6.77
2017-05-19T05:03:11.744Z,6.88
2017-05-19T05:05:41.188Z,7.15
2017-05-19T05:08:10.588Z,8.70
2017-05-19T05:10:40.032Z,6.43
2017-05-19T05:13:09.432Z,6.80
2017-05-19T05:15:39.604Z,6.50
2017-05-19T05:18:08.996Z,6.65
2017-05-19T05:20:38.424Z,6.43
2017-05-19T05:23:07.827Z,7.77
2017-05-19T05:25:37.253Z,7.48
2017-05-19T05:28:07.393Z,7.12
2017-05-19T05:30:36.809Z,6.92
2017-05-19T05:33:06.242Z,7.60
2017-05-19T05:35:35.665Z,6.88
2017-05-19T05:38:05.109Z,7.20
2017-05-19T05:40:34.517Z,7.17
2017-05-19T05:43:03.962Z,7.28
2017-05-19T05:45:33.380Z,6.60
2017-05-19T05:48:02.821Z,7.50
2017-05-19T05:50:32.226Z,7.08
2017-05-19T05:53:01.657Z,7.70
2017-05-19T05:55:31.061Z,9.03
2017-05-19T05:58:00.491Z,7.23
2017-05-19T06:00:29.897Z,7.57
2017-05-19T06:03:01.181Z,8.30
2017-05-19T06:05:30.645Z,8.05
2017-05-19T06:08:00.040Z,9.58
2017-05-19T06:10:29.480Z,9.90
2017-05-19T06:12:58.888Z,9.13
2017-05-19T06:15:28.338Z,11.13
2017-05-19T06:17:58.186Z,10.95
2017-05-19T06:20:27.637Z,11.17
2017-05-19T06:22:57.059Z,11.37
2017-05-19T06:25:26.569Z,13.40
2017-05-19T06:27:56.003Z,11.50
2017-05-19T06:30:25.469Z,11.88
2017-05-19T06:32:54.884Z,11.70
2017-05-19T06:35:25.070Z,12.05
2017-05-19T06:37:54.485Z,12.50
2017-05-19T06:40:23.961Z,12.08
2017-05-19T06:42:53.375Z,15.28
2017-05-19T06:45:22.836Z,15.22
2017-05-19T06:47:52.252Z,15.13
2017-05-19T06:50:21.705Z,12.88
2017-05-19T06:52:51.167Z,14.60
2017-05-19T06:55:20.590Z,13.78
2017-05-19T06:57:50.048Z,13.68
2017-05-19T07:00:19.471Z,13.63
2017-05-19T07:02:48.734Z,24.20
2017-05-19T07:05:18.903Z,16.67
2017-05-19T07:07:48.332Z,15.97
2017-05-19T07:10:17.782Z,13.77
2017-05-19T07:12:47.189Z,16.35
2017-05-19T07:15:16.656Z,14.78
2017-05-19T07:17:46.076Z,15.73
2017-05-19T07:20:16.258Z,15.22
2017-05-19T07:22:45.656Z,5.15
2017-05-19T07:25:15.110Z,2.27
2017-05-19T07:27:45.251Z,1.60
2017-05-19T07:30:14.688Z,2.42
2017-05-19T07:32:44.093Z,1.10
2017-05-19T07:35:13.512Z,0.65
2017-05-19T07:37:42.941Z,0.70
2017-05-19T07:40:13.083Z,0.52
2017-05-19T07:42:42.501Z,3.62
2017-05-19T07:45:11.887Z,0.62
2017-05-19T07:47:41.317Z,3.12
2017-05-19T07:50:11.396Z,0.87
2017-05-19T07:52:41.672Z,0.50
2017-05-19T07:55:11.073Z,0.40
2017-05-19T07:57:40.489Z,0.37
2017-05-19T08:00:09.888Z,0.90
2017-05-19T08:02:39.332Z,0.52
2017-05-19T08:05:08.724Z,0.50
2017-05-19T08:07:38.889Z,0.40
2017-05-19T08:10:08.292Z,1.25
2017-05-19T08:12:37.720Z,0.40
2017-05-19T08:15:07.117Z,0.90
2017-05-19T08:17:36.543Z,0.48
2017-05-19T08:20:06.676Z,0.95
2017-05-19T08:22:36.851Z,0.70
2017-05-19T08:25:06.245Z,0.45
2017-05-19T08:27:35.677Z,1.08
2017-05-19T08:30:05.081Z,0.85
2017-05-19T08:32:34.503Z,7.05
2017-05-19T08:35:03.940Z,7.40
2017-05-19T08:37:33.337Z,2.15
2017-05-19T08:40:02.779Z,0.60
2017-05-19T08:42:32.164Z,1.63
2017-05-19T08:45:01.598Z,0.75
2017-05-19T08:47:30.989Z,0.65
2017-05-19T08:50:00.424Z,1.10
2017-05-19T08:52:30.560Z,0.60
2017-05-19T08:54:59.989Z,0.98
2017-05-19T08:57:29.388Z,2.15
2017-05-19T08:59:58.811Z,0.60
2017-05-19T09:02:28.206Z,0.48
2017-05-19T09:04:57.644Z,0.73
2017-05-19T09:07:27.780Z,1.07
2017-05-19T09:09:57.240Z,2.25
2017-05-19T09:12:26.637Z,0.45
2017-05-19T09:14:56.075Z,0.67
2017-05-19T09:17:26.205Z,1.02
2017-05-19T09:19:56.387Z,1.65
2017-05-19T09:22:25.791Z,2.12
2017-05-19T09:24:55.220Z,0.40
2017-05-19T09:27:25.349Z,0.30
2017-05-19T09:29:54.780Z,0.62
2017-05-19T09:32:24.173Z,0.83
2017-05-19T09:34:53.587Z,0.40
2017-05-19T09:37:22.975Z,0.40
2017-05-19T09:39:52.414Z,0.75
2017-05-19T09:42:21.808Z,0.40
2017-05-19T09:44:51.260Z,0.98
2017-05-19T09:47:21.392Z,0.73
2017-05-19T09:49:50.805Z,0.57
2017-05-19T09:52:20.235Z,0.50
2017-05-19T09:54:49.629Z,0.53
2017-05-19T09:57:19.067Z,0.40
2017-05-19T09:59:48.460Z,0.40
2017-05-19T10:02:17.890Z,0.50
2017-05-19T10:04:48.027Z,0.50
2017-05-19T10:07:17.460Z,1.58
2017-05-19T10:09:46.860Z,1.17
2017-05-19T10:12:16.292Z,0.40
2017-05-19T10:14:45.684Z,2.65
2017-05-19T10:17:15.109Z,0.83
2017-05-19T10:19:44.504Z,0.45
2017-05-19T10:22:13.940Z,0.40
2017-05-19T10:24:44.074Z,1.17
2017-05-19T10:27:13.495Z,0.30
2017-05-19T10:29:42.886Z,4.08
2017-05-19T10:32:12.339Z,0.82
2017-05-19T10:34:41.738Z,1.12
2017-05-19T10:37:11.164Z,1.68
2017-05-19T10:39:41.313Z,0.62
2017-05-19T10:42:10.748Z,1.23
2017-05-19T10:44:40.152Z,1.13
2017-05-19T10:47:10.193Z,2.47
2017-05-19T10:49:39.594Z,0.77
2017-05-19T10:52:09.780Z,0.83
2017-05-19T10:54:39.176Z,1.18
2017-05-19T10:57:08.613Z,0.50
2017-05-19T10:59:38.385Z,0.50
2017-05-19T11:02:07.808Z,0.45
2017-05-19T11:04:37.204Z,0.40
2017-05-19T11:07:06.620Z,0.30
2017-05-19T11:09:36.051Z,0.40
2017-05-19T11:12:06.196Z,1.03
2017-05-19T11:14:35.652Z,1.72
2017-05-19T11:17:05.049Z,0.63
2017-05-19T11:19:34.513Z,0.55
2017-05-19T11:22:03.926Z,1.57
2017-05-19T11:24:33.357Z,1.78
2017-05-19T11:27:02.756Z,2.58
2017-05-19T11:29:32.170Z,0.30
2017-05-19T11:32:01.564Z,0.52
2017-05-19T11:34:30.985Z,0.68
2017-05-19T11:37:01.050Z,0.45
2017-05-19T11:39:30.505Z,0.88
2017-05-19T11:41:59.906Z,1.20
2017-05-19T11:44:29.657Z,1.02
2017-05-19T11:46:59.997Z,0.65
2017-05-19T11:49:29.417Z,0.67
2017-05-19T11:51:58.819Z,1.00
2017-05-19T11:54:28.280Z,1.10
2017-05-19T11:56:57.671Z,0.77
2017-05-19T11:59:28.663Z,0.77
2017-05-19T12:01:58.048Z,0.68
2017-05-19T12:04:27.471Z,1.27
2017-05-19T12:06:56.860Z,0.75
2017-05-19T12:09:25.587Z,0.83
2017-05-19T12:11:55.376Z,0.72
2017-05-19T12:14:24.810Z,0.43
2017-05-19T12:16:54.207Z,2.28
2017-05-19T12:19:24.370Z,0.90
2017-05-19T12:21:53.790Z,0.93
2017-05-19T12:24:23.210Z,1.35
2017-05-19T12:26:52.601Z,0.48
2017-05-19T12:29:22.465Z,0.45
2017-05-19T12:31:51.861Z,0.50
2017-05-19T12:34:21.285Z,1.07
2017-05-19T12:36:50.675Z,0.98
2017-05-19T12:39:20.134Z,1.37
2017-05-19T12:41:50.749Z,0.50
2017-05-19T12:44:21.400Z,1.30
2017-05-19T12:46:51.944Z,0.93
2017-05-19T12:49:22.126Z,0.55
2017-05-19T12:51:51.517Z,0.47
2017-05-19T12:54:20.965Z,0.60
2017-05-19T12:56:50.353Z,0.40
2017-05-19T12:59:19.816Z,0.33
2017-05-19T13:01:49.217Z,0.62
2017-05-19T13:04:18.705Z,0.40
2017-05-19T13:06:48.107Z,0.40
2017-05-19T13:09:17.520Z,0.40
2017-05-19T13:11:46.916Z,3.15
2017-05-19T13:14:16.337Z,0.33
2017-05-19T13:16:45.729Z,0.70
2017-05-19T13:19:15.153Z,0.95
2017-05-19T13:21:44.566Z,0.40
2017-05-19T13:24:13.999Z,0.78
2017-05-19T13:26:43.394Z,0.50
2017-05-19T13:29:12.846Z,0.68
2017-05-19T13:31:42.240Z,0.65
2017-05-19T13:34:11.658Z,0.60
2017-05-19T13:36:41.085Z,0.40
2017-05-19T13:39:10.480Z,0.78
2017-05-19T13:41:39.903Z,0.37
2017-05-19T13:44:09.300Z,0.82
2017-05-19T13:46:38.733Z,1.07
2017-05-19T13:49:08.881Z,1.97
2017-05-19T13:51:38.315Z,0.67
2017-05-19T13:54:07.707Z,0.88
2017-05-19T13:56:37.144Z,2.00
2017-05-19T13:59:06.533Z,0.50
2017-05-19T14:01:35.990Z,0.50
2017-05-19T14:04:05.403Z,0.98
2017-05-19T14:06:34.837Z,0.45
2017-05-19T14:09:03.537Z,0.68
2017-05-19T14:11:32.973Z,0.40
2017-05-19T14:14:02.374Z,1.03
2017-05-19T14:16:31.804Z,0.55
2017-05-19T14:19:01.244Z,0.62
2017-05-19T14:21:30.900Z,1.10
2017-05-19T14:24:00.325Z,1.03
2017-05-19T14:26:29.764Z,1.42
2017-05-19T14:28:59.161Z,0.50
2017-05-19T14:31:28.591Z,0.75
2017-05-19T14:33:57.985Z,0.67
2017-05-19T14:36:28.154Z,0.53
2017-05-19T14:38:57.540Z,0.65
2017-05-19T14:41:26.968Z,0.95
2017-05-19T14:43:56.364Z,0.83
2017-05-19T14:46:25.792Z,0.60
2017-05-19T14:48:55.185Z,0.93
2017-05-19T14:51:24.617Z,0.75
2017-05-19T14:53:54.003Z,0.55
2017-05-19T14:56:23.453Z,1.38
2017-05-19T14:58:52.845Z,0.65
2017-05-19T15:01:22.288Z,0.60
2017-05-19T15:03:51.687Z,1.20
2017-05-19T15:06:21.128Z,0.32
2017-05-19T15:08:50.542Z,0.55
2017-05-19T15:11:20.704Z,1.03
2017-05-19T15:13:50.107Z,1.63
2017-05-19T15:16:19.609Z,0.40
2017-05-19T15:18:49.236Z,0.72
2017-05-19T15:21:18.505Z,1.20
2017-05-19T15:23:47.894Z,0.92
2017-05-19T15:26:17.322Z,0.75
2017-05-19T15:28:46.737Z,1.12
2017-05-19T15:31:16.149Z,0.90
2017-05-19T15:33:45.580Z,0.50
2017-05-19T15:36:15.710Z,0.50
2017-05-19T15:38:45.135Z,1.12
2017-05-19T15:41:14.533Z,0.40
2017-05-19T15:43:43.968Z,0.50
2017-05-19T15:46:13.392Z,0.55
2017-05-19T15:48:42.824Z,0.52
2017-05-19T15:51:12.217Z,0.63
2017-05-19T15:53:41.658Z,0.40
2017-05-19T15:56:11.065Z,2.07
2017-05-19T15:58:40.507Z,0.82
2017-05-19T16:01:09.896Z,0.60
2017-05-19T16:03:39.331Z,0.97
2017-05-19T16:06:08.727Z,0.62
2017-05-19T16:08:38.877Z,0.60
2017-05-19T16:11:08.269Z,0.57
2017-05-19T16:13:37.714Z,0.47
2017-05-19T16:16:07.112Z,0.63
2017-05-19T16:18:36.574Z,0.57
2017-05-19T16:21:05.966Z,0.45
2017-05-19T16:23:37.108Z,2.17
2017-05-19T16:26:07.240Z,0.63
2017-05-19T16:28:36.664Z,0.40
2017-05-19T16:31:06.055Z,0.42
2017-05-19T16:33:35.480Z,0.50
2017-05-19T16:36:04.873Z,0.55
2017-05-19T16:38:34.307Z,0.68
2017-05-19T16:41:46.066Z,0.57
2017-05-19T16:44:12.992Z,0.77
2017-05-19T16:46:39.968Z,1.20
2017-05-19T16:49:06.891Z,0.52
2017-05-19T16:51:33.821Z,0.77
2017-05-19T16:54:00.774Z,1.07
2017-05-19T16:56:27.692Z,0.55
2017-05-19T16:58:54.613Z,0.53
2017-05-19T17:01:21.575Z,0.40
2017-05-19T17:03:48.506Z,0.75
2017-05-19T17:06:15.428Z,0.80
2017-05-19T17:08:42.400Z,0.42
2017-05-19T17:11:09.358Z,0.40
2017-05-19T17:13:36.315Z,0.98
2017-05-19T17:16:03.243Z,0.40
2017-05-19T17:18:30.209Z,0.73
2017-05-19T17:20:57.155Z,6.78
2017-05-19T17:23:24.101Z,2.02
2017-05-19T17:25:51.034Z,1.72
2017-05-19T17:28:17.997Z,1.32
2017-05-19T17:30:44.907Z,1.08
2017-05-19T17:33:11.903Z,1.60
2017-05-19T17:35:38.939Z,1.62
2017-05-19T17:38:05.880Z,1.03
2017-05-19T17:40:32.803Z,1.05
2017-05-19T17:43:00.539Z,0.63
2017-05-19T17:45:27.509Z,0.98
2017-05-19T17:47:54.436Z,1.55
2017-05-19T17:50:21.369Z,0.60
2017-05-19T17:52:48.320Z,0.47
2017-05-19T17:55:15.257Z,1.63
2017-05-19T17:57:42.202Z,1.08
2017-05-19T18:00:09.184Z,0.60
2017-05-19T18:02:36.096Z,0.60
2017-05-19T18:05:03.022Z,1.25
2017-05-19T18:07:29.949Z,3.77
2017-05-19T18:09:56.872Z,0.52
2017-05-19T18:12:23.868Z,1.20
2017-05-19T18:14:50.884Z,2.72
2017-05-19T18:17:17.816Z,0.70
2017-05-19T18:19:44.770Z,3.20
2017-05-19T18:22:11.705Z,3.45
2017-05-19T18:24:38.624Z,12.95
2017-05-19T18:27:05.597Z,5.25
2017-05-19T18:29:32.535Z,18.88
2017-05-19T18:31:59.459Z,0.85
2017-05-19T18:34:26.439Z,4.12
2017-05-19T18:36:52.638Z,1.73
2017-05-19T18:39:19.586Z,14.07
2017-05-19T18:41:46.584Z,5.05
2017-05-19T18:44:13.540Z,3.62
2017-05-19T18:46:40.499Z,2.07
2017-05-19T18:49:08.601Z,1.63
2017-05-19T18:51:35.566Z,4.10
2017-05-19T18:54:02.574Z,4.47
2017-05-19T18:56:29.504Z,1.75
2017-05-19T18:58:56.429Z,3.60
2017-05-19T19:01:23.396Z,4.55
2017-05-19T19:03:50.997Z,8.35
2017-05-19T19:06:17.937Z,8.07
2017-05-19T19:08:45.888Z,4.35
2017-05-19T19:11:12.852Z,2.12
2017-05-19T19:13:39.823Z,1.38
2017-05-19T19:16:06.741Z,6.42
2017-05-19T19:18:33.697Z,4.85
2017-05-19T19:21:00.632Z,2.73
2017-05-19T19:23:27.563Z,1.65
2017-05-19T19:25:54.471Z,4.67
2017-05-19T19:28:21.401Z,6.27
2017-05-19T19:30:48.344Z,12.20
2017-05-19T19:33:15.314Z,11.53
2017-05-19T19:35:42.245Z,5.00
2017-05-19T19:38:09.169Z,1.55
2017-05-19T19:40:36.119Z,2.02
2017-05-19T19:43:03.031Z,1.40
2017-05-19T19:45:29.999Z,3.78
2017-05-19T19:47:56.957Z,4.67
2017-05-19T19:50:23.907Z,6.02
2017-05-19T19:52:50.823Z,3.53
2017-05-19T19:55:17.789Z,2.25
2017-05-19T19:57:44.726Z,2.13
2017-05-19T20:00:11.660Z,2.03
2017-05-19T20:02:38.629Z,3.93
2017-05-19T20:05:05.557Z,1.60
2017-05-19T20:07:32.525Z,1.50
2017-05-19T20:09:59.448Z,2.68
2017-05-19T20:12:26.315Z,2.03
2017-05-19T20:14:53.300Z,1.70
2017-05-19T20:17:20.230Z,1.50
2017-05-19T20:19:47.153Z,1.73
2017-05-19T20:22:14.095Z,2.33
2017-05-19T20:24:41.056Z,1.60
2017-05-19T20:27:08.024Z,2.07
2017-05-19T20:29:34.966Z,1.58
2017-05-19T20:32:01.918Z,2.10
2017-05-19T20:34:28.897Z,2.20
2017-05-19T20:36:55.885Z,2.02
2017-05-19T20:39:22.825Z,1.68
2017-05-19T20:41:49.746Z,1.97
2017-05-19T20:44:16.716Z,1.70
2017-05-19T20:46:43.665Z,1.43
2017-05-19T20:49:10.522Z,1.62
2017-05-19T20:51:37.506Z,3.18
2017-05-19T20:54:04.427Z,2.03
2017-05-19T20:56:31.367Z,2.42
2017-05-19T20:58:58.346Z,1.92
2017-05-19T21:01:25.279Z,1.97
2017-05-19T21:03:52.212Z,1.68
2017-05-19T21:06:19.208Z,3.13
2017-05-19T21:08:46.134Z,1.62
2017-05-19T21:11:13.061Z,1.50
2017-05-19T21:13:40.366Z,4.03
2017-05-19T21:16:07.329Z,1.57
2017-05-19T21:18:34.238Z,1.58
2017-05-19T21:21:01.224Z,1.67
2017-05-19T21:23:28.164Z,1.92
2017-05-19T21:25:55.118Z,1.68
2017-05-19T21:28:22.080Z,2.43
2017-05-19T21:30:49.024Z,1.92
2017-05-19T21:33:16.008Z,1.63
2017-05-19T21:35:42.921Z,3.93
2017-05-19T21:38:09.851Z,1.62
2017-05-19T21:40:36.816Z,2.18
2017-05-19T21:43:03.755Z,2.97
2017-05-19T21:45:30.688Z,6.00
2017-05-19T21:47:57.706Z,2.03
2017-05-19T21:50:24.671Z,1.70
2017-05-19T21:52:51.580Z,1.70
2017-05-19T21:55:18.524Z,1.50
2017-05-19T21:57:45.516Z,1.52
2017-05-19T22:00:12.508Z,2.45
2017-05-19T22:02:39.420Z,1.55
2017-05-19T22:05:06.345Z,1.85
2017-05-19T22:07:33.328Z,1.58
2017-05-19T22:10:00.260Z,1.97
2017-05-19T22:12:27.168Z,1.75
2017-05-19T22:14:55.011Z,2.37
2017-05-19T22:17:21.954Z,1.93
2017-05-19T22:19:48.860Z,2.12
2017-05-19T22:22:15.848Z,2.10
2017-05-19T22:24:42.774Z,4.03
2017-05-19T22:27:09.688Z,3.40
2017-05-19T22:29:36.717Z,2.35
2017-05-19T22:32:03.640Z,1.98
2017-05-19T22:34:30.561Z,2.40
2017-05-19T22:36:57.513Z,2.57
2017-05-19T22:39:24.432Z,2.40
2017-05-19T22:41:51.361Z,2.28
2017-05-19T22:44:18.329Z,1.95
2017-05-19T22:46:45.256Z,2.20
2017-05-19T22:49:12.191Z,2.00
2017-05-19T22:51:39.204Z,2.70
2017-05-19T22:54:06.153Z,2.12
2017-05-19T22:56:33.095Z,2.58
2017-05-19T22:59:00.096Z,2.97
2017-05-19T23:01:27.028Z,2.53
2017-05-19T23:03:53.951Z,4.22
2017-05-19T23:06:20.894Z,2.50
2017-05-19T23:08:47.804Z,2.63
2017-05-19T23:11:14.739Z,2.77
2017-05-19T23:13:41.661Z,2.45
2017-05-19T23:16:08.659Z,2.28
2017-05-19T23:18:35.581Z,2.48
2017-05-19T23:21:02.532Z,2.82
2017-05-19T23:23:29.453Z,2.43
2017-05-19T23:25:56.385Z,2.92
2017-05-19T23:28:23.360Z,2.20
2017-05-19T23:30:50.281Z,3.43
2017-05-19T23:33:17.189Z,3.12
2017-05-19T23:35:44.165Z,2.70
2017-05-19T23:38:11.077Z,2.50
2017-05-19T23:40:38.052Z,2.45
2017-05-19T23:43:04.993Z,2.75
2017-05-19T23:45:31.972Z,2.70
2017-05-19T23:47:58.941Z,2.73
2017-05-19T23:50:25.864Z,2.92
2017-05-19T23:52:52.137Z,2.52
2017-05-19T23:55:19.061Z,2.97
2017-05-19T23:57:45.984Z,2.43
